createdAt,value
2018-11-04T00:02:00.052Z,4.70
2018-11-04T00:04:28.759Z,4.70
2018-11-04T00:06:57.855Z,4.70
2018-11-04T00:09:26.030Z,4.70
2018-11-04T00:11:54.179Z,4.70
2018-11-04T00:14:22.334Z,4.70
2018-11-04T00:16:50.457Z,4.60
2018-11-04T00:19:18.782Z,4.60
2018-11-04T00:21:46.951Z,4.60
2018-11-04T00:24:15.148Z,4.60
2018-11-04T00:26:43.211Z,4.50
2018-11-04T00:29:11.416Z,4.50
2018-11-04T00:31:40.516Z,4.50
2018-11-04T00:34:08.677Z,4.50
2018-11-04T00:36:36.804Z,4.50
2018-11-04T00:39:06.944Z,4.50
2018-11-04T00:41:35.098Z,4.50
2018-11-04T00:44:03.207Z,4.50
2018-11-04T00:46:31.388Z,4.50
2018-11-04T00:48:59.743Z,4.50
2018-11-04T00:51:27.863Z,4.50
2018-11-04T00:53:56.019Z,4.50
2018-11-04T00:56:24.150Z,4.50
2018-11-04T00:58:52.357Z,4.40
2018-11-04T01:01:20.516Z,4.40
2018-11-04T01:03:48.609Z,4.50
2018-11-04T01:06:16.744Z,4.40
2018-11-04T01:08:45.063Z,4.40
2018-11-04T01:11:13.197Z,4.30
2018-11-04T01:13:41.306Z,4.30
2018-11-04T01:16:09.404Z,4.30
2018-11-04T01:18:37.745Z,4.20
2018-11-04T01:21:06.111Z,4.30
2018-11-04T01:23:34.165Z,4.20
2018-11-04T01:26:02.303Z,4.30
2018-11-04T01:28:30.393Z,4.30
2018-11-04T01:30:58.497Z,4.20
2018-11-04T01:33:26.596Z,4.20
2018-11-04T01:35:54.728Z,4.20
2018-11-04T01:38:22.949Z,4.20
2018-11-04T01:40:51.088Z,4.20
2018-11-04T01:43:19.211Z,4.20
2018-11-04T01:45:47.324Z,4.20
2018-11-04T01:48:15.613Z,4.10
2018-11-04T01:50:43.737Z,4.00
2018-11-04T01:53:11.855Z,3.80
2018-11-04T01:55:39.989Z,3.80
2018-11-04T01:58:08.309Z,3.70
2018-11-04T02:00:36.426Z,3.60
2018-11-04T02:03:04.560Z,3.60
2018-11-04T02:05:32.673Z,3.60
2018-11-04T02:08:00.805Z,3.70
2018-11-04T02:10:28.938Z,3.70
2018-11-04T02:12:57.061Z,3.60
2018-11-04T02:15:25.185Z,3.50
2018-11-04T02:17:53.300Z,3.50
2018-11-04T02:20:21.590Z,3.50
2018-11-04T02:22:49.738Z,3.50
2018-11-04T02:25:17.866Z,3.40
2018-11-04T02:27:45.953Z,3.40
2018-11-04T02:30:15.440Z,3.50
2018-11-04T02:32:44.539Z,3.50
2018-11-04T02:35:13.424Z,3.60
2018-11-04T02:37:41.743Z,3.70
2018-11-04T02:40:10.440Z,3.70
2018-11-04T02:42:38.566Z,3.80
2018-11-04T02:45:07.179Z,3.80
2018-11-04T02:47:35.586Z,3.80
2018-11-04T02:50:03.908Z,3.90
2018-11-04T02:52:32.041Z,3.90
2018-11-04T02:55:00.177Z,3.90
2018-11-04T02:57:28.277Z,3.90
2018-11-04T02:59:56.384Z,3.90
2018-11-04T03:02:24.507Z,3.90
2018-11-04T03:04:52.617Z,3.80
2018-11-04T03:07:20.720Z,3.80
2018-11-04T03:09:48.898Z,3.80
2018-11-04T03:12:17.027Z,3.80
2018-11-04T03:14:45.166Z,3.80
2018-11-04T03:17:13.293Z,3.70
2018-11-04T03:19:41.624Z,3.70
2018-11-04T03:22:09.747Z,3.70
2018-11-04T03:24:37.943Z,3.70
2018-11-04T03:27:06.000Z,3.60
2018-11-04T03:29:34.284Z,3.70
2018-11-04T03:32:02.418Z,3.70
2018-11-04T03:34:30.554Z,3.80
2018-11-04T03:36:58.666Z,3.80
2018-11-04T03:39:26.981Z,3.70
2018-11-04T03:41:55.098Z,3.70
2018-11-04T03:44:23.209Z,3.70
2018-11-04T03:46:51.428Z,3.70
2018-11-04T03:49:19.735Z,3.60
2018-11-04T03:51:47.864Z,3.60
2018-11-04T03:54:16.010Z,3.60
2018-11-04T03:56:44.131Z,3.60
2018-11-04T03:59:12.365Z,3.70
2018-11-04T04:01:40.457Z,3.60
2018-11-04T04:04:08.578Z,3.60
2018-11-04T04:06:38.646Z,3.60
2018-11-04T04:09:08.194Z,3.60
2018-11-04T04:11:37.400Z,3.50
2018-11-04T04:14:05.920Z,3.50
2018-11-04T04:16:34.140Z,3.60
2018-11-04T04:19:02.700Z,3.60
2018-11-04T04:21:30.824Z,3.60
2018-11-04T04:23:59.281Z,3.60
2018-11-04T04:26:27.417Z,3.60
2018-11-04T04:28:56.610Z,3.60
2018-11-04T04:31:24.700Z,3.60
2018-11-04T04:33:52.784Z,3.50
2018-11-04T04:36:20.879Z,3.50
2018-11-04T04:38:49.098Z,3.50
2018-11-04T04:41:17.222Z,3.50
2018-11-04T04:43:46.163Z,3.50
2018-11-04T04:46:15.214Z,3.40
2018-11-04T04:48:46.004Z,3.40
2018-11-04T04:51:15.948Z,3.40
2018-11-04T04:53:44.075Z,3.40
2018-11-04T05:16:23.195Z,3.30
2018-11-04T05:36:09.489Z,3.00
2018-11-04T05:55:55.519Z,3.10
2018-11-04T05:58:23.788Z,3.10
2018-11-04T06:00:51.906Z,3.10
2018-11-04T06:03:20.048Z,3.00
2018-11-04T06:05:48.180Z,3.00
2018-11-04T06:08:16.496Z,3.00
2018-11-04T06:10:44.644Z,3.00
2018-11-04T06:13:13.004Z,3.00
2018-11-04T06:15:54.652Z,3.00
2018-11-04T06:18:24.434Z,3.00
2018-11-04T06:20:53.803Z,3.00
2018-11-04T06:23:21.951Z,2.90
2018-11-04T06:25:50.050Z,2.90
2018-11-04T06:28:18.997Z,2.90
2018-11-04T06:30:47.136Z,2.90
2018-11-04T06:33:17.436Z,2.90
2018-11-04T06:35:45.918Z,2.90
2018-11-04T06:38:14.293Z,2.90
2018-11-04T06:40:43.319Z,2.90
2018-11-04T06:43:12.440Z,2.90
2018-11-04T06:45:42.194Z,3.00
2018-11-04T06:48:10.405Z,3.00
2018-11-04T06:50:38.557Z,3.00
2018-11-04T06:53:06.698Z,3.00
2018-11-04T06:55:34.844Z,3.00
2018-11-04T06:58:03.799Z,3.00
2018-11-04T07:00:32.364Z,3.00
2018-11-04T07:03:00.508Z,3.00
2018-11-04T07:05:28.672Z,3.00
2018-11-04T07:07:58.189Z,3.00
2018-11-04T07:10:26.329Z,2.90
2018-11-04T07:12:54.512Z,3.00
2018-11-04T07:15:22.635Z,3.00
2018-11-04T07:17:50.750Z,3.00
2018-11-04T07:20:19.054Z,3.00
2018-11-04T07:22:47.399Z,3.00
2018-11-04T07:25:15.514Z,3.10
2018-11-04T07:27:43.624Z,3.10
2018-11-04T07:30:12.454Z,3.10
2018-11-04T07:32:41.302Z,3.20
2018-11-04T07:35:10.663Z,3.30
2018-11-04T07:37:39.227Z,3.40
2018-11-04T07:40:08.099Z,3.40
2018-11-04T07:42:36.371Z,3.50
2018-11-04T07:45:04.813Z,3.60
2018-11-04T07:47:32.920Z,3.60
2018-11-04T07:50:01.200Z,3.70
2018-11-04T07:52:29.340Z,3.80
2018-11-04T07:54:57.493Z,3.90
2018-11-04T07:57:25.597Z,4.00
2018-11-04T07:59:53.860Z,4.00
2018-11-04T08:02:22.007Z,4.10
2018-11-04T08:04:50.122Z,4.10
2018-11-04T08:07:18.664Z,4.20
2018-11-04T08:09:46.980Z,4.20
2018-11-04T08:12:15.099Z,4.20
2018-11-04T08:14:43.351Z,4.20
2018-11-04T08:17:11.459Z,4.30
2018-11-04T08:19:39.666Z,4.30
2018-11-04T08:22:07.831Z,4.40
2018-11-04T08:24:35.953Z,4.40
2018-11-04T08:27:04.061Z,4.40
2018-11-04T08:29:32.334Z,4.40
2018-11-04T08:32:00.467Z,4.50
2018-11-04T08:34:28.603Z,4.50
2018-11-04T08:36:56.738Z,4.60
2018-11-04T08:39:25.092Z,4.70
2018-11-04T08:41:53.217Z,4.70
2018-11-04T08:44:21.408Z,4.70
2018-11-04T08:46:49.543Z,4.80
2018-11-04T08:49:17.766Z,4.80
2018-11-04T08:51:45.919Z,4.80
2018-11-04T08:54:14.050Z,4.80
2018-11-04T08:56:42.135Z,4.90
2018-11-04T08:59:10.275Z,4.90
2018-11-04T09:01:38.400Z,4.90
2018-11-04T09:04:06.533Z,5.00
2018-11-04T09:06:36.196Z,5.00
2018-11-04T09:09:06.169Z,5.00
2018-11-04T09:11:34.298Z,5.10
2018-11-04T09:14:02.435Z,5.10
2018-11-04T09:16:30.590Z,5.20
2018-11-04T09:18:58.892Z,5.30
2018-11-04T09:21:27.317Z,5.40
2018-11-04T09:23:55.442Z,5.40
2018-11-04T09:26:23.611Z,5.50
2018-11-04T09:28:51.791Z,5.60
2018-11-04T09:31:19.905Z,5.70
2018-11-04T09:33:48.004Z,5.80
2018-11-04T09:36:16.284Z,5.90
2018-11-04T09:38:57.176Z,6.00
2018-11-04T09:41:32.315Z,6.10
2018-11-04T09:44:09.476Z,6.20
2018-11-04T09:46:37.603Z,6.30
2018-11-04T09:49:06.170Z,6.40
2018-11-04T09:51:34.316Z,6.50
2018-11-04T09:54:02.537Z,6.50
2018-11-04T09:56:33.633Z,6.60
2018-11-04T09:59:01.820Z,6.60
2018-11-04T10:01:31.766Z,6.60
2018-11-04T10:04:00.967Z,6.70
2018-11-04T10:06:29.375Z,6.80
2018-11-04T10:09:11.728Z,6.80
2018-11-04T10:11:40.774Z,6.80
2018-11-04T10:14:09.477Z,6.90
2018-11-04T10:16:38.043Z,7.00
2018-11-04T10:19:07.887Z,7.00
2018-11-04T10:21:35.811Z,7.10
2018-11-04T10:24:04.148Z,7.20
2018-11-04T10:26:32.323Z,7.20
2018-11-04T10:29:06.228Z,7.30
2018-11-04T10:31:35.327Z,7.40
2018-11-04T10:34:06.381Z,7.40
2018-11-04T10:36:41.755Z,7.40
2018-11-04T10:39:17.144Z,7.50
2018-11-04T10:44:46.350Z,7.60
2018-11-04T10:47:14.519Z,7.70
2018-11-04T10:49:56.047Z,7.70
2018-11-04T10:52:24.575Z,7.80
2018-11-04T10:54:52.716Z,7.80
2018-11-04T10:57:21.734Z,7.90
2018-11-04T10:59:51.545Z,8.00
2018-11-04T11:02:19.784Z,8.10
2018-11-04T11:04:47.920Z,8.20
2018-11-04T11:07:16.032Z,8.30
2018-11-04T11:09:45.372Z,8.40
2018-11-04T11:12:13.487Z,8.50
2018-11-04T11:14:41.636Z,8.60
2018-11-04T11:17:09.761Z,8.70
2018-11-04T11:19:37.987Z,8.70
2018-11-04T11:22:06.125Z,8.80
2018-11-04T11:24:34.303Z,8.90
2018-11-04T11:27:02.394Z,9.00
2018-11-04T11:29:30.648Z,9.10
2018-11-04T11:31:58.765Z,9.20
2018-11-04T11:34:26.906Z,9.30
2018-11-04T11:36:55.046Z,9.40
2018-11-04T11:39:23.354Z,9.40
2018-11-04T11:41:51.445Z,9.50
2018-11-04T11:44:19.607Z,9.50
2018-11-04T11:46:47.704Z,9.60
2018-11-04T11:49:15.855Z,9.60
2018-11-04T11:51:43.981Z,9.60
2018-11-04T11:54:12.114Z,9.60
2018-11-04T11:56:40.193Z,9.70
2018-11-04T11:59:08.314Z,9.70
2018-11-04T12:01:36.421Z,9.70
2018-11-04T12:04:04.551Z,9.80
2018-11-04T12:06:33.259Z,9.80
2018-11-04T12:09:01.453Z,9.80
2018-11-04T12:11:29.559Z,9.90
2018-11-04T12:14:03.531Z,9.90
2018-11-04T12:16:32.274Z,9.90
2018-11-04T12:19:00.491Z,9.90
2018-11-04T12:21:31.207Z,9.90
2018-11-04T12:23:59.326Z,9.90
2018-11-04T12:26:27.462Z,10.00
2018-11-04T12:28:55.615Z,10.00
2018-11-04T12:31:23.742Z,10.00
2018-11-04T12:33:51.894Z,10.00
2018-11-04T12:36:19.989Z,10.10
2018-11-04T12:38:48.336Z,10.20
2018-11-04T12:41:16.456Z,10.20
2018-11-04T12:43:44.585Z,10.20
2018-11-04T12:46:12.710Z,10.30
2018-11-04T12:48:41.362Z,10.30
2018-11-04T12:51:09.511Z,10.40
2018-11-04T12:53:37.645Z,10.40
2018-11-04T12:56:05.910Z,10.40
2018-11-04T12:58:34.004Z,10.40
2018-11-04T13:01:02.146Z,10.50
2018-11-04T13:03:30.273Z,10.50
2018-11-04T13:05:58.425Z,10.60
2018-11-04T13:08:26.631Z,10.70
2018-11-04T13:11:03.642Z,10.70
2018-11-04T13:13:31.775Z,10.80
2018-11-04T13:15:59.898Z,10.80
2018-11-04T13:18:28.097Z,10.80
2018-11-04T13:20:56.243Z,10.80
2018-11-04T13:23:24.383Z,10.90
2018-11-04T13:25:52.506Z,10.90
2018-11-04T13:28:20.781Z,11.00
2018-11-04T13:30:48.892Z,11.00
2018-11-04T13:33:17.020Z,11.00
2018-11-04T13:35:45.216Z,11.00
2018-11-04T13:38:28.894Z,11.00
2018-11-04T13:40:57.024Z,11.00
2018-11-04T13:43:25.238Z,11.00
2018-11-04T13:45:53.356Z,11.00
2018-11-04T13:48:21.984Z,11.00
2018-11-04T13:50:50.115Z,11.00
2018-11-04T13:53:18.234Z,11.00
2018-11-04T13:55:46.380Z,11.00
2018-11-04T13:58:14.608Z,11.00
2018-11-04T14:00:42.722Z,11.00
2018-11-04T14:03:10.859Z,11.00
2018-11-04T14:05:38.989Z,11.00
2018-11-04T14:08:07.717Z,11.00
2018-11-04T14:10:35.875Z,11.00
2018-11-04T14:13:05.171Z,10.90
2018-11-04T14:15:33.291Z,10.90
2018-11-04T14:18:01.594Z,10.90
2018-11-04T14:20:29.746Z,10.90
2018-11-04T14:22:57.895Z,10.90
2018-11-04T14:25:25.998Z,10.90
2018-11-04T14:27:54.138Z,10.90
2018-11-04T14:30:22.419Z,10.90
2018-11-04T14:32:50.525Z,10.90
2018-11-04T14:35:18.680Z,11.00
2018-11-04T14:37:46.843Z,10.90
2018-11-04T14:40:15.694Z,11.00
2018-11-04T14:42:44.537Z,11.00
2018-11-04T14:45:12.668Z,10.90
2018-11-04T14:47:40.790Z,10.90
2018-11-04T14:50:13.050Z,10.80
2018-11-04T14:52:41.220Z,10.80
2018-11-04T14:55:09.884Z,10.70
2018-11-04T14:57:41.090Z,10.70
2018-11-04T15:00:12.209Z,10.70
2018-11-04T15:02:40.464Z,10.70
2018-11-04T15:05:09.396Z,10.70
2018-11-04T15:07:37.914Z,10.60
2018-11-04T15:10:07.612Z,10.60
2018-11-04T15:12:35.764Z,10.60
2018-11-04T15:15:04.684Z,10.60
2018-11-04T15:17:32.777Z,10.50
2018-11-04T15:20:01.354Z,10.50
2018-11-04T15:22:29.444Z,10.50
2018-11-04T15:25:09.089Z,10.40
2018-11-04T15:27:41.124Z,10.40
2018-11-04T15:30:14.367Z,10.30
2018-11-04T15:32:44.202Z,10.20
2018-11-04T15:35:13.390Z,10.20
2018-11-04T15:37:45.816Z,10.20
2018-11-04T15:40:15.548Z,10.10
2018-11-04T15:42:45.173Z,10.10
2018-11-04T15:45:14.663Z,10.00
2018-11-04T15:47:53.176Z,10.00
2018-11-04T15:50:21.651Z,9.90
2018-11-04T15:52:57.045Z,9.80
2018-11-04T15:55:25.149Z,9.70
2018-11-04T15:57:53.264Z,9.60
2018-11-04T16:00:21.554Z,9.50
2018-11-04T16:02:49.742Z,9.40
2018-11-04T16:05:18.295Z,9.30
2018-11-04T16:07:46.588Z,9.30
2018-11-04T16:10:14.911Z,9.20
2018-11-04T16:12:43.256Z,9.10
2018-11-04T16:15:12.871Z,9.10
2018-11-04T16:17:41.723Z,9.10
2018-11-04T16:20:14.131Z,9.00
2018-11-04T16:22:42.833Z,9.00
2018-11-04T16:25:16.829Z,9.00
2018-11-04T16:27:46.310Z,9.00
2018-11-04T16:30:17.488Z,8.90
2018-11-04T16:32:47.805Z,8.90
2018-11-04T16:35:19.737Z,8.90
2018-11-04T16:37:48.940Z,8.90
2018-11-04T16:40:17.116Z,8.90
2018-11-04T16:42:45.483Z,9.00
2018-11-04T16:45:15.092Z,9.00
2018-11-04T16:50:56.273Z,9.10
2018-11-04T16:53:24.387Z,9.10
2018-11-04T16:55:52.528Z,9.10
2018-11-04T16:58:21.130Z,9.10
2018-11-04T17:00:49.606Z,9.10
2018-11-04T17:03:18.024Z,9.10
2018-11-04T17:05:46.219Z,9.00
2018-11-04T17:08:37.547Z,9.00
2018-11-04T17:11:05.771Z,9.00
2018-11-04T17:13:52.153Z,9.00
2018-11-04T17:16:35.656Z,9.00
2018-11-04T17:19:08.308Z,9.00
2018-11-04T17:21:39.457Z,9.00
2018-11-04T17:24:08.124Z,9.00
2018-11-04T17:26:37.050Z,9.00
2018-11-04T17:29:05.382Z,8.90
2018-11-04T17:31:34.169Z,8.90
2018-11-04T17:34:05.733Z,8.90
2018-11-04T17:36:34.932Z,8.90
2018-11-04T17:39:02.969Z,8.90
2018-11-04T17:41:33.288Z,8.90
2018-11-04T17:44:01.773Z,8.90
2018-11-04T17:49:15.163Z,8.80
2018-11-04T17:51:49.328Z,8.80
2018-11-04T17:54:18.954Z,8.80
2018-11-04T17:57:01.482Z,8.70
2018-11-04T17:59:35.471Z,8.60
2018-11-04T18:02:07.197Z,8.50
2018-11-04T18:04:35.322Z,8.50
2018-11-04T18:07:06.999Z,8.50
2018-11-04T18:09:57.539Z,8.40
2018-11-04T18:12:40.345Z,8.40
2018-11-04T18:15:10.748Z,8.40
2018-11-04T18:17:39.520Z,8.40
2018-11-04T18:20:08.810Z,8.40
2018-11-04T18:22:37.416Z,8.40
2018-11-04T18:25:16.716Z,8.40
2018-11-04T18:27:51.856Z,8.40
2018-11-04T18:30:23.969Z,8.40
2018-11-04T18:32:52.077Z,8.40
2018-11-04T18:35:20.479Z,8.40
2018-11-04T18:37:48.615Z,8.40
2018-11-04T18:40:26.003Z,8.40
2018-11-04T18:43:02.743Z,8.40
2018-11-04T18:50:18.711Z,8.30
2018-11-04T18:52:47.502Z,8.30
2018-11-04T18:55:16.115Z,8.30
2018-11-04T18:57:50.136Z,8.30
2018-11-04T19:00:33.393Z,8.30
2018-11-04T19:03:23.957Z,8.30
2018-11-04T19:08:57.991Z,8.20
2018-11-04T19:11:28.346Z,8.20
2018-11-04T19:13:58.392Z,8.30
2018-11-04T19:16:26.724Z,8.20
2018-11-04T19:18:55.088Z,8.30
2018-11-04T19:21:23.175Z,8.20
2018-11-04T19:23:51.318Z,8.30
2018-11-04T19:26:19.808Z,8.30
2018-11-04T19:28:47.953Z,8.20
2018-11-04T19:31:16.640Z,8.30
2018-11-04T19:33:44.711Z,8.20
2018-11-04T19:36:13.647Z,8.20
2018-11-04T19:38:43.244Z,8.20
2018-11-04T19:41:13.614Z,8.20
2018-11-04T19:43:47.839Z,8.20
2018-11-04T19:46:26.533Z,8.10
2018-11-04T19:48:57.869Z,8.20
2018-11-04T19:51:26.742Z,8.10
2018-11-04T19:59:42.349Z,8.10
2018-11-04T20:02:10.500Z,8.00
2018-11-04T20:04:38.665Z,8.00
2018-11-04T20:07:06.816Z,7.90
2018-11-04T20:09:35.154Z,7.90
2018-11-04T20:12:03.544Z,7.80
2018-11-04T20:14:33.014Z,7.80
2018-11-04T20:17:02.822Z,7.80
2018-11-04T20:19:36.739Z,7.70
2018-11-04T20:22:06.545Z,7.70
2018-11-04T20:24:40.257Z,7.70
2018-11-04T20:27:10.687Z,7.70
2018-11-04T20:29:39.909Z,7.70
2018-11-04T20:32:13.454Z,7.70
2018-11-04T20:34:42.878Z,7.70
2018-11-04T20:37:12.987Z,7.70
2018-11-04T20:39:46.488Z,7.60
2018-11-04T20:42:14.975Z,7.70
2018-11-04T20:44:45.856Z,7.70
2018-11-04T20:47:14.753Z,7.70
2018-11-04T20:49:48.724Z,7.70
2018-11-04T20:52:17.930Z,7.70
2018-11-04T20:54:46.754Z,7.70
2018-11-04T20:57:20.558Z,7.70
2018-11-04T20:59:51.113Z,7.70
2018-11-04T21:02:19.912Z,7.70
2018-11-04T21:04:48.445Z,7.70
2018-11-04T21:07:16.593Z,7.70
2018-11-04T21:09:44.928Z,7.70
2018-11-04T21:12:13.356Z,7.70
2018-11-04T21:14:43.390Z,7.60
2018-11-04T21:17:11.518Z,7.60
2018-11-04T21:19:39.837Z,7.60
2018-11-04T21:22:09.257Z,7.60
2018-11-04T21:24:37.640Z,7.50
2018-11-04T21:27:06.324Z,7.50
2018-11-04T21:29:34.996Z,7.50
2018-11-04T21:32:03.286Z,7.40
2018-11-04T21:34:31.426Z,7.40
2018-11-04T21:36:59.580Z,7.30
2018-11-04T21:39:27.933Z,7.30
2018-11-04T21:41:56.065Z,7.30
2018-11-04T21:44:24.399Z,7.20
2018-11-04T21:46:52.424Z,7.20
2018-11-04T21:49:20.615Z,7.20
2018-11-04T21:51:48.742Z,7.20
2018-11-04T21:54:16.880Z,7.20
2018-11-04T21:56:45.733Z,7.20
2018-11-04T21:59:13.876Z,7.20
2018-11-04T22:01:42.026Z,7.10
2018-11-04T22:04:16.881Z,7.10
2018-11-04T22:06:45.563Z,7.10
2018-11-04T22:09:14.248Z,7.10
2018-11-04T22:11:42.411Z,7.10
2018-11-04T22:14:10.534Z,7.10
2018-11-04T22:16:38.707Z,7.10
2018-11-04T22:19:07.588Z,7.10
2018-11-04T22:21:35.774Z,7.10
2018-11-04T22:24:04.220Z,7.10
2018-11-04T22:26:32.812Z,7.10
2018-11-04T22:29:01.574Z,7.10
2018-11-04T22:31:29.799Z,7.10
2018-11-04T22:33:57.936Z,7.00
2018-11-04T22:36:29.309Z,7.00
2018-11-04T22:38:59.961Z,6.90
2018-11-04T22:41:28.427Z,6.90
2018-11-04T22:43:56.542Z,6.90
2018-11-04T22:46:24.743Z,6.80
2018-11-04T22:48:52.934Z,6.80
2018-11-04T22:51:21.082Z,6.80
2018-11-04T22:53:49.654Z,6.80
2018-11-04T22:56:18.918Z,6.80
2018-11-04T22:58:47.035Z,6.80
2018-11-04T23:01:15.170Z,6.80
2018-11-04T23:03:43.300Z,6.80
2018-11-04T23:06:11.433Z,6.80
2018-11-04T23:08:39.732Z,6.70
2018-11-04T23:11:07.902Z,6.70
2018-11-04T23:13:36.033Z,6.70
2018-11-04T23:16:04.165Z,6.70
2018-11-04T23:18:32.479Z,6.60
2018-11-04T23:21:00.579Z,6.60
2018-11-04T23:23:28.711Z,6.60
2018-11-04T23:25:56.892Z,6.60
2018-11-04T23:28:25.106Z,6.60
2018-11-04T23:30:53.228Z,6.60
2018-11-04T23:33:21.359Z,6.60
2018-11-04T23:35:49.485Z,6.50
2018-11-04T23:38:17.837Z,6.50
2018-11-04T23:40:45.969Z,6.50
2018-11-04T23:43:14.118Z,6.40
2018-11-04T23:45:42.290Z,6.50
2018-11-04T23:48:10.518Z,6.50
2018-11-04T23:50:38.687Z,6.50
2018-11-04T23:53:06.818Z,6.60
2018-11-04T23:55:34.948Z,6.60
2018-11-04T23:58:03.055Z,6.70
